Sciota, Illinois
Current Conditions -  °F | °C
As of 10:35 PM on Friday 19 Dec 2014 (Local Time) from KMQB Reporting Station
Overcast Overcast  
Wind Chill: 30°   Ceiling: 5000
Heat Index: 30°   Visibility: 7mi
Dew Point: 26°   Wind: 0mph
Humidity: 84%   Direction: NA
Pressure: 30.29"   Gusts: NA
Location:  40.56°N, 90.75°W
Report Text: KMQB 200435Z AUTO 00000KT 7SM OVC050 M01/M03 A3029 RMK AO2 T10101034
Loading
Personal Weather Stations






























Interactive Weather Map New forecast layout! Learn more

10-Day Weather Forecast

Advertisements
Track Severe Weather on mobile